createdAt,value
2019-06-07T00:01:13.800Z,14.00
2019-06-07T00:03:42.020Z,14.00
2019-06-07T00:06:14.564Z,14.10
2019-06-07T00:08:40.171Z,14.10
2019-06-07T00:11:13.086Z,14.10
2019-06-07T00:13:38.307Z,14.10
2019-06-07T00:16:08.554Z,14.10
2019-06-07T00:18:36.672Z,14.10
2019-06-07T00:21:04.896Z,14.00
2019-06-07T00:23:33.091Z,14.00
2019-06-07T00:26:01.323Z,14.00
2019-06-07T00:28:29.530Z,14.00
2019-06-07T00:30:57.740Z,14.00
2019-06-07T00:33:25.959Z,14.00
2019-06-07T00:35:54.179Z,14.00
2019-06-07T00:38:22.379Z,14.00
2019-06-07T00:40:50.580Z,14.00
2019-06-07T00:43:26.204Z,14.00
2019-06-07T00:45:49.086Z,14.00
2019-06-07T00:48:27.335Z,14.00
2019-06-07T00:50:47.343Z,14.00
2019-06-07T00:53:26.946Z,14.00
2019-06-07T00:55:45.710Z,14.00
2019-06-07T00:58:15.460Z,14.00
2019-06-07T01:00:44.389Z,14.00
2019-06-07T01:03:12.806Z,14.00
2019-06-07T01:05:41.021Z,14.00
2019-06-07T01:08:09.238Z,14.00
2019-06-07T01:10:52.869Z,14.00
2019-06-07T01:13:07.401Z,14.00
2019-06-07T01:15:35.587Z,13.90
2019-06-07T01:20:33.974Z,13.90
2019-06-07T01:23:02.210Z,13.90
2019-06-07T01:25:30.410Z,13.90
2019-06-07T01:27:58.636Z,13.90
2019-06-07T01:30:29.069Z,13.80
2019-06-07T01:32:56.996Z,13.90
2019-06-07T01:35:25.564Z,13.90
2019-06-07T01:37:53.942Z,13.90
2019-06-07T01:40:27.323Z,13.70
2019-06-07T01:42:52.359Z,13.80
2019-06-07T01:45:21.338Z,13.80
2019-06-07T01:47:49.660Z,13.80
2019-06-07T01:50:22.518Z,13.80
2019-06-07T01:52:48.082Z,13.80
2019-06-07T01:55:18.621Z,13.80
2019-06-07T01:57:48.510Z,13.70
2019-06-07T02:00:17.431Z,13.70
2019-06-07T02:02:45.982Z,13.60
2019-06-07T02:05:14.267Z,13.60
2019-06-07T02:07:42.714Z,13.50
2019-06-07T02:10:11.291Z,13.40
2019-06-07T02:12:43.256Z,13.40
2019-06-07T02:15:09.841Z,13.30
2019-06-07T02:17:38.362Z,13.30
2019-06-07T02:20:06.790Z,13.30
2019-06-07T02:22:34.991Z,13.30
2019-06-07T02:25:35.050Z,13.20
2019-06-07T02:27:33.442Z,13.20
2019-06-07T02:30:35.643Z,13.20
2019-06-07T02:32:36.190Z,13.20
2019-06-07T02:35:02.033Z,13.20
2019-06-07T02:37:34.092Z,13.20
2019-06-07T02:40:00.408Z,13.30
2019-06-07T02:42:30.795Z,13.30
2019-06-07T02:44:58.801Z,13.30
2019-06-07T02:47:28.681Z,13.30
2019-06-07T02:49:56.927Z,13.30
2019-06-07T02:52:30.785Z,13.30
2019-06-07T02:54:55.296Z,13.20
2019-06-07T02:57:25.711Z,13.30
2019-06-07T03:00:07.043Z,13.20
2019-06-07T03:02:25.555Z,13.20
2019-06-07T03:04:53.335Z,13.20
2019-06-07T03:07:21.562Z,13.20
2019-06-07T03:09:49.790Z,13.10
2019-06-07T03:12:18.263Z,13.10
2019-06-07T03:14:46.489Z,13.20
2019-06-07T03:17:36.495Z,13.10
2019-06-07T03:20:04.472Z,13.00
2019-06-07T03:22:38.012Z,13.10
2019-06-07T03:25:03.617Z,13.10
2019-06-07T03:27:40.272Z,13.10
2019-06-07T03:30:34.945Z,13.00
2019-06-07T03:32:36.908Z,13.00
2019-06-07T03:35:02.273Z,13.00
2019-06-07T03:37:34.812Z,13.00
2019-06-07T03:40:00.380Z,12.90
2019-06-07T03:42:29.216Z,12.90
2019-06-07T03:44:57.692Z,12.90
2019-06-07T03:47:28.395Z,12.90
2019-06-07T03:49:55.844Z,12.90
2019-06-07T03:52:24.050Z,12.90
2019-06-07T03:54:52.476Z,12.80
2019-06-07T03:57:20.698Z,12.80
2019-06-07T03:59:48.908Z,12.70
2019-06-07T04:02:17.112Z,12.70
2019-06-07T04:04:45.565Z,12.70
2019-06-07T04:07:13.769Z,12.70
2019-06-07T04:09:43.055Z,12.70
2019-06-07T04:12:11.678Z,12.70
2019-06-07T04:14:42.578Z,12.70
2019-06-07T04:17:09.916Z,12.70
2019-06-07T04:19:42.795Z,12.80
2019-06-07T04:22:08.090Z,12.80
2019-06-07T04:24:38.894Z,12.80
2019-06-07T04:27:06.449Z,12.80
2019-06-07T04:29:56.701Z,12.80
2019-06-07T04:32:04.638Z,12.80
2019-06-07T04:34:37.555Z,12.80
2019-06-07T04:37:03.010Z,12.80
2019-06-07T04:39:34.044Z,12.90
2019-06-07T04:42:01.434Z,12.90
2019-06-07T04:44:31.118Z,12.90
2019-06-07T04:46:59.431Z,13.00
2019-06-07T04:49:29.733Z,13.00
2019-06-07T04:51:57.583Z,13.00
2019-06-07T04:54:26.060Z,13.00
2019-06-07T04:56:54.286Z,12.90
2019-06-07T05:00:01.374Z,12.80
2019-06-07T05:01:52.679Z,12.90
2019-06-07T05:04:20.959Z,13.00
2019-06-07T05:06:49.195Z,12.90
2019-06-07T05:09:17.385Z,12.90
2019-06-07T05:11:45.581Z,12.90
2019-06-07T05:14:13.803Z,12.80
2019-06-07T05:16:44.264Z,12.80
2019-06-07T05:19:11.973Z,12.80
2019-06-07T05:22:01.995Z,12.70
2019-06-07T05:24:10.889Z,12.70
2019-06-07T05:26:42.522Z,12.80
2019-06-07T05:29:09.170Z,12.70
2019-06-07T05:31:39.750Z,12.70
2019-06-07T05:34:07.324Z,12.70
2019-06-07T05:36:38.669Z,12.80
2019-06-07T05:39:07.104Z,12.90
2019-06-07T05:41:37.124Z,12.90
2019-06-07T05:44:12.817Z,12.80
2019-06-07T05:46:40.640Z,12.70
2019-06-07T05:49:07.867Z,12.60
2019-06-07T05:51:38.079Z,12.60
2019-06-07T05:54:05.993Z,12.60
2019-06-07T05:56:35.867Z,12.60
2019-06-07T05:59:04.292Z,12.60
2019-06-07T06:01:58.927Z,12.60
2019-06-07T06:04:02.464Z,12.60
2019-06-07T06:06:30.899Z,12.60
2019-06-07T06:09:13.293Z,12.60
2019-06-07T06:11:43.147Z,12.60
2019-06-07T06:14:07.405Z,12.60
2019-06-07T06:16:29.370Z,12.60
2019-06-07T06:18:57.805Z,12.70
2019-06-07T06:21:26.014Z,12.70
2019-06-07T06:23:54.220Z,12.60
2019-06-07T06:26:22.424Z,12.70
2019-06-07T06:28:50.648Z,12.70
2019-06-07T06:31:18.862Z,12.70
2019-06-07T06:33:49.549Z,12.70
2019-06-07T06:36:17.036Z,12.70
2019-06-07T06:38:47.063Z,12.90
2019-06-07T06:41:16.734Z,13.00
2019-06-07T06:43:49.105Z,13.00
2019-06-07T06:46:31.841Z,13.10
2019-06-07T06:48:48.238Z,13.20
2019-06-07T06:51:15.484Z,13.30
2019-06-07T06:53:46.235Z,13.50
2019-06-07T06:56:13.853Z,13.70
2019-06-07T06:59:21.597Z,13.70
2019-06-07T07:01:12.012Z,13.70
2019-06-07T07:04:00.050Z,13.80
2019-06-07T07:06:25.221Z,13.80
2019-06-07T07:08:40.902Z,13.80
2019-06-07T07:11:09.178Z,13.90
2019-06-07T07:13:37.599Z,13.90
2019-06-07T07:16:06.055Z,13.90
2019-06-07T07:18:34.252Z,13.90
2019-06-07T07:21:02.475Z,13.90
2019-06-07T07:23:30.810Z,14.00
2019-06-07T07:26:00.132Z,14.10
2019-06-07T07:28:28.587Z,14.10
2019-06-07T07:30:57.222Z,14.10
2019-06-07T07:33:25.678Z,14.20
2019-06-07T07:36:15.294Z,14.30
2019-06-07T07:38:23.895Z,14.40
2019-06-07T07:41:15.261Z,14.40
2019-06-07T07:43:22.357Z,14.50
2019-06-07T07:45:55.016Z,14.50
2019-06-07T07:48:20.494Z,14.60
2019-06-07T07:50:53.286Z,14.60
2019-06-07T07:53:18.655Z,14.70
2019-06-07T07:55:51.530Z,14.70
2019-06-07T07:58:17.058Z,14.80
2019-06-07T08:01:00.672Z,14.80
2019-06-07T08:03:15.245Z,14.90
2019-06-07T08:05:46.544Z,15.10
2019-06-07T08:08:13.623Z,15.20
2019-06-07T08:10:41.831Z,15.30
2019-06-07T08:13:27.778Z,15.40
2019-06-07T08:15:39.979Z,15.50
2019-06-07T08:18:08.185Z,15.60
2019-06-07T08:20:36.398Z,15.70
2019-06-07T08:23:04.899Z,15.80
2019-06-07T08:25:33.127Z,15.90
2019-06-07T08:28:01.404Z,16.10
2019-06-07T08:33:23.875Z,16.30
2019-06-07T08:36:03.778Z,16.40
2019-06-07T08:38:26.752Z,16.50
2019-06-07T08:40:29.767Z,16.60
2019-06-07T08:43:13.039Z,16.60
2019-06-07T08:45:28.311Z,16.70
2019-06-07T08:47:58.109Z,16.70
2019-06-07T08:50:26.440Z,16.70
2019-06-07T08:53:00.015Z,16.80
2019-06-07T08:55:24.799Z,16.90
2019-06-07T08:57:57.246Z,17.10
2019-06-07T09:00:45.535Z,17.20
2019-06-07T09:02:54.973Z,17.20
2019-06-07T09:05:22.766Z,17.30
2019-06-07T09:08:14.754Z,17.40
2019-06-07T09:10:21.356Z,17.50
2019-06-07T09:12:49.590Z,17.50
2019-06-07T09:15:23.466Z,17.60
2019-06-07T09:18:30.083Z,17.70
2019-06-07T09:20:35.542Z,17.80
2019-06-07T09:22:48.051Z,17.80
2019-06-07T09:25:21.065Z,17.90
2019-06-07T09:27:46.420Z,18.00
2019-06-07T09:30:18.875Z,18.00
2019-06-07T09:32:46.262Z,18.20
2019-06-07T09:35:17.548Z,18.30
2019-06-07T09:40:26.943Z,18.50
2019-06-07T09:42:45.902Z,18.50
2019-06-07T09:45:15.739Z,18.60
2019-06-07T09:47:43.966Z,18.70
2019-06-07T09:50:12.606Z,18.90
2019-06-07T09:52:57.843Z,18.90
2019-06-07T09:55:22.536Z,19.00
2019-06-07T09:57:41.047Z,19.10
2019-06-07T10:00:39.214Z,19.20
2019-06-07T10:02:43.662Z,19.20
2019-06-07T10:05:14.020Z,19.20
2019-06-07T10:07:59.609Z,19.30
2019-06-07T10:12:41.870Z,19.50
2019-06-07T10:15:10.091Z,19.60
2019-06-07T10:17:38.280Z,19.70
2019-06-07T10:20:07.582Z,19.80
2019-06-07T10:22:35.820Z,19.80
2019-06-07T10:25:06.327Z,19.90
2019-06-07T10:27:34.677Z,19.90
2019-06-07T10:30:04.069Z,20.00
2019-06-07T10:32:32.339Z,20.20
2019-06-07T10:35:00.754Z,20.30
2019-06-07T10:37:28.945Z,20.40
2019-06-07T10:39:57.160Z,20.50
2019-06-07T10:42:25.356Z,20.60
2019-06-07T10:44:53.583Z,20.60
2019-06-07T10:47:21.795Z,20.70
2019-06-07T10:49:50.240Z,20.70
2019-06-07T10:52:18.444Z,20.80
2019-06-07T10:54:46.658Z,20.80
2019-06-07T10:57:16.191Z,20.90
2019-06-07T10:59:44.602Z,21.00
2019-06-07T11:02:14.060Z,21.10
2019-06-07T11:04:42.624Z,21.20
2019-06-07T11:07:11.967Z,21.30
2019-06-07T11:09:40.346Z,21.40
2019-06-07T11:12:08.561Z,21.50
2019-06-07T11:14:36.766Z,21.50
2019-06-07T11:17:05.274Z,21.50
2019-06-07T11:19:33.726Z,21.50
2019-06-07T11:22:02.155Z,21.60
2019-06-07T11:24:30.371Z,21.70
2019-06-07T11:26:58.581Z,21.90
2019-06-07T11:29:26.784Z,21.90
2019-06-07T11:31:55.004Z,22.00
2019-06-07T11:34:23.270Z,22.10
2019-06-07T11:36:51.472Z,22.30
2019-06-07T11:39:19.940Z,22.40
2019-06-07T11:41:48.148Z,22.50
2019-06-07T11:44:17.234Z,22.60
2019-06-07T11:46:45.452Z,22.80
2019-06-07T11:49:19.826Z,22.80
2019-06-07T11:51:43.684Z,22.80
2019-06-07T11:54:12.126Z,22.90
2019-06-07T11:56:40.386Z,23.00
2019-06-07T11:59:08.998Z,23.00
2019-06-07T12:01:37.521Z,23.10
2019-06-07T12:04:05.736Z,23.20
2019-06-07T12:06:33.935Z,23.40
2019-06-07T12:09:02.147Z,23.50
2019-06-07T12:11:30.453Z,23.60
2019-06-07T12:13:58.708Z,23.70
2019-06-07T12:16:26.917Z,23.80
2019-06-07T12:18:55.122Z,23.90
2019-06-07T12:21:23.345Z,24.00
2019-06-07T12:23:51.550Z,24.10
2019-06-07T12:26:20.629Z,24.20
2019-06-07T12:28:49.189Z,24.30
2019-06-07T12:31:17.406Z,24.40
2019-06-07T12:33:45.613Z,24.50
2019-06-07T12:36:13.813Z,24.50
2019-06-07T12:38:42.009Z,24.60
2019-06-07T12:41:10.212Z,24.60
2019-06-07T12:43:38.423Z,24.80
2019-06-07T12:46:06.853Z,24.90
2019-06-07T12:48:35.280Z,25.00
2019-06-07T12:51:03.738Z,25.10
2019-06-07T12:53:31.951Z,25.20
2019-06-07T12:56:00.430Z,25.40
2019-06-07T12:58:34.885Z,25.60
2019-06-07T13:00:59.822Z,25.80
2019-06-07T13:03:28.206Z,25.80
2019-06-07T13:05:56.427Z,26.00
2019-06-07T13:08:24.635Z,26.00
2019-06-07T13:10:53.071Z,26.20
2019-06-07T13:13:22.676Z,26.20
2019-06-07T13:15:51.282Z,26.40
2019-06-07T13:18:21.196Z,26.60
2019-06-07T13:20:49.632Z,26.60
2019-06-07T13:23:19.094Z,26.80
2019-06-07T13:25:47.833Z,26.80
2019-06-07T13:28:17.303Z,26.80
2019-06-07T13:30:45.978Z,27.00
2019-06-07T13:33:14.201Z,27.20
2019-06-07T13:35:42.651Z,27.30
2019-06-07T13:38:12.499Z,27.40
2019-06-07T13:40:40.719Z,27.40
2019-06-07T13:43:08.934Z,27.60
2019-06-07T13:45:37.144Z,27.70
2019-06-07T13:48:05.367Z,27.80
2019-06-07T13:50:33.577Z,28.00
2019-06-07T13:53:01.810Z,28.00
2019-06-07T13:55:30.025Z,27.80
2019-06-07T13:57:58.236Z,28.00
2019-06-07T14:00:26.796Z,28.10
2019-06-07T14:02:55.067Z,28.50
2019-06-07T14:05:23.287Z,28.70
2019-06-07T14:07:51.537Z,29.00
2019-06-07T14:10:19.711Z,29.20
2019-06-07T14:12:48.290Z,29.30
2019-06-07T14:15:16.502Z,29.40
2019-06-07T14:17:44.709Z,29.10
2019-06-07T14:20:12.975Z,29.00
2019-06-07T14:22:41.425Z,29.20
2019-06-07T14:25:09.638Z,29.60
2019-06-07T14:27:38.128Z,29.70
2019-06-07T14:30:08.186Z,30.00
2019-06-07T14:32:36.386Z,29.90
2019-06-07T14:35:07.510Z,30.00
2019-06-07T14:37:36.599Z,30.20
2019-06-07T14:40:08.315Z,30.40
2019-06-07T14:42:36.513Z,30.60
2019-06-07T14:45:06.578Z,30.70
2019-06-07T14:47:35.030Z,30.70
2019-06-07T14:50:03.715Z,30.70
2019-06-07T14:52:33.359Z,30.70
2019-06-07T14:55:02.130Z,30.70
2019-06-07T14:57:31.116Z,30.10
2019-06-07T14:59:59.387Z,29.90
2019-06-07T15:02:28.391Z,29.50
2019-06-07T15:04:56.909Z,29.40
2019-06-07T15:07:26.593Z,29.20
2019-06-07T15:09:55.124Z,29.00
2019-06-07T15:12:25.312Z,28.80
2019-06-07T15:14:53.283Z,28.60
2019-06-07T15:17:21.513Z,28.50
2019-06-07T15:19:49.719Z,28.40
2019-06-07T15:22:17.933Z,28.40
2019-06-07T15:24:46.150Z,28.30
2019-06-07T15:27:14.373Z,28.20
2019-06-07T15:29:42.780Z,28.10
2019-06-07T15:32:10.983Z,27.90
2019-06-07T15:34:39.194Z,27.80
2019-06-07T15:37:07.389Z,27.70
2019-06-07T15:39:36.579Z,27.60
2019-06-07T15:42:05.133Z,27.50
2019-06-07T15:44:33.552Z,27.40
2019-06-07T15:47:01.756Z,27.40
2019-06-07T15:49:30.357Z,27.30
2019-06-07T15:51:58.792Z,27.30
2019-06-07T15:54:27.070Z,27.20
2019-06-07T15:56:55.313Z,27.20
2019-06-07T15:59:23.530Z,27.10
2019-06-07T16:01:51.799Z,27.10
2019-06-07T16:04:20.236Z,27.00
2019-06-07T16:06:48.513Z,27.00
2019-06-07T16:09:16.713Z,26.90
2019-06-07T16:11:44.921Z,26.80
2019-06-07T16:14:13.341Z,26.70
2019-06-07T16:16:43.249Z,26.60
2019-06-07T16:19:11.677Z,26.40
2019-06-07T16:21:39.884Z,26.40
2019-06-07T16:24:08.082Z,26.30
2019-06-07T16:26:36.350Z,26.10
2019-06-07T16:29:04.563Z,26.10
2019-06-07T16:31:32.764Z,26.00
2019-06-07T16:34:01.166Z,25.90
2019-06-07T16:36:29.479Z,25.90
2019-06-07T16:38:57.669Z,25.80
2019-06-07T16:41:25.904Z,25.80
2019-06-07T16:43:54.091Z,25.80
2019-06-07T16:46:23.282Z,25.60
2019-06-07T16:48:51.486Z,25.60
2019-06-07T16:51:19.706Z,25.60
2019-06-07T16:53:48.591Z,25.60
2019-06-07T16:56:16.837Z,25.50
2019-06-07T16:58:46.504Z,25.40
2019-06-07T17:01:14.735Z,25.30
2019-06-07T17:03:43.540Z,25.20
2019-06-07T17:06:11.808Z,24.50
2019-06-07T17:08:40.189Z,23.90
2019-06-07T17:11:08.520Z,23.20
2019-06-07T17:13:36.722Z,22.80
2019-06-07T17:16:04.944Z,22.40
2019-06-07T17:18:36.959Z,21.90
2019-06-07T17:21:03.341Z,21.60
2019-06-07T17:23:31.556Z,21.30
2019-06-07T17:25:59.753Z,21.00
2019-06-07T17:28:28.198Z,20.70
2019-06-07T17:30:56.648Z,20.50
2019-06-07T17:33:24.857Z,20.10
2019-06-07T17:35:53.062Z,19.60
2019-06-07T17:38:21.303Z,19.20
2019-06-07T17:40:49.501Z,18.90
2019-06-07T17:43:17.703Z,18.60
2019-06-07T17:45:47.391Z,18.20
2019-06-07T17:48:15.792Z,17.90
2019-06-07T17:50:44.038Z,17.60
2019-06-07T17:53:12.468Z,17.40
2019-06-07T17:55:41.963Z,17.10
2019-06-07T17:58:10.277Z,17.10
2019-06-07T18:00:51.044Z,17.10
2019-06-07T18:03:19.366Z,17.00
2019-06-07T18:05:49.255Z,16.90
2019-06-07T18:08:17.577Z,16.80
2019-06-07T18:10:46.173Z,16.60
2019-06-07T18:13:14.392Z,16.60
2019-06-07T18:15:44.471Z,16.60
2019-06-07T18:18:12.756Z,16.60
2019-06-07T18:20:40.953Z,16.50
2019-06-07T18:23:09.157Z,16.50
2019-06-07T18:25:37.356Z,16.50
2019-06-07T18:28:05.578Z,16.60
2019-06-07T18:30:33.777Z,16.50
2019-06-07T18:33:01.993Z,16.40
2019-06-07T18:35:30.218Z,16.30
2019-06-07T18:37:59.318Z,16.30
2019-06-07T18:40:27.530Z,16.30
2019-06-07T18:42:55.728Z,16.20
2019-06-07T18:45:23.917Z,16.10
2019-06-07T18:47:53.456Z,16.20
2019-06-07T18:50:21.922Z,16.20
2019-06-07T18:52:50.879Z,16.20
2019-06-07T18:55:19.125Z,16.10
2019-06-07T18:57:48.116Z,16.10
2019-06-07T19:00:18.073Z,16.10
2019-06-07T19:02:47.623Z,16.10
2019-06-07T19:05:16.172Z,16.10
2019-06-07T19:07:44.381Z,16.10
2019-06-07T19:10:13.959Z,16.10
2019-06-07T19:12:42.398Z,16.20
2019-06-07T19:15:11.754Z,16.10
2019-06-07T19:17:39.967Z,16.10
2019-06-07T19:20:08.389Z,16.10
2019-06-07T19:22:36.981Z,16.00
2019-06-07T19:25:06.024Z,16.00
2019-06-07T19:27:34.232Z,16.00
2019-06-07T19:30:02.473Z,16.00
2019-06-07T19:32:30.674Z,15.90
2019-06-07T19:34:59.439Z,15.80
2019-06-07T19:37:27.680Z,15.80
2019-06-07T19:39:56.113Z,15.70
2019-06-07T19:42:24.322Z,15.80
2019-06-07T19:44:59.186Z,15.70
2019-06-07T19:47:22.687Z,15.60
2019-06-07T19:49:52.969Z,15.50
2019-06-07T19:52:21.294Z,15.50
2019-06-07T19:54:49.782Z,15.50
2019-06-07T19:57:18.028Z,15.50
2019-06-07T19:59:46.258Z,15.50
2019-06-07T20:02:14.478Z,15.40
2019-06-07T20:04:42.690Z,15.40
2019-06-07T20:07:10.893Z,15.40
2019-06-07T20:09:39.102Z,15.50
2019-06-07T20:12:07.316Z,15.50
2019-06-07T20:14:35.538Z,15.50
2019-06-07T20:17:03.746Z,15.50
2019-06-07T20:19:31.926Z,15.50
2019-06-07T20:22:01.045Z,15.50
2019-06-07T20:24:29.328Z,15.50
2019-06-07T20:26:58.246Z,15.40
2019-06-07T20:29:29.535Z,15.40
2019-06-07T20:31:56.669Z,15.40
2019-06-07T20:34:24.880Z,15.40
2019-06-07T20:36:53.094Z,15.50
2019-06-07T20:39:21.292Z,15.40
2019-06-07T20:41:49.542Z,15.40
2019-06-07T20:44:17.758Z,15.40
2019-06-07T20:46:45.992Z,15.40
2019-06-07T20:49:14.210Z,15.50
2019-06-07T20:51:42.758Z,15.40
2019-06-07T20:54:10.969Z,15.30
2019-06-07T20:56:39.180Z,15.40
2019-06-07T20:59:07.393Z,15.40
2019-06-07T21:01:35.602Z,15.30
2019-06-07T21:04:05.069Z,15.30
2019-06-07T21:06:33.282Z,15.30
2019-06-07T21:09:01.594Z,15.20
2019-06-07T21:11:30.107Z,15.20
2019-06-07T21:13:58.295Z,15.10
2019-06-07T21:16:26.723Z,15.10
2019-06-07T21:18:54.922Z,15.10
2019-06-07T21:21:23.138Z,15.10
2019-06-07T21:23:51.337Z,15.10
2019-06-07T21:26:19.543Z,15.20
2019-06-07T21:28:47.754Z,15.20
2019-06-07T21:31:15.956Z,15.20
2019-06-07T21:33:44.163Z,15.10
2019-06-07T21:36:12.383Z,15.20
2019-06-07T21:38:40.576Z,15.20
2019-06-07T21:41:10.510Z,15.20
2019-06-07T21:43:38.802Z,15.30
2019-06-07T21:46:11.498Z,15.30
2019-06-07T21:48:36.930Z,15.40
2019-06-07T21:51:06.348Z,15.40
2019-06-07T21:53:34.861Z,15.40
2019-06-07T21:56:03.062Z,15.30
2019-06-07T21:58:31.271Z,15.30
2019-06-07T22:01:04.229Z,15.40
2019-06-07T22:03:32.677Z,15.40
2019-06-07T22:06:00.872Z,15.40
2019-06-07T22:08:29.081Z,15.30
2019-06-07T22:10:57.501Z,15.30
2019-06-07T22:13:25.728Z,15.30
2019-06-07T22:15:53.908Z,15.30
2019-06-07T22:18:22.127Z,15.30
2019-06-07T22:20:50.536Z,15.30
2019-06-07T22:23:18.754Z,15.30
2019-06-07T22:25:46.953Z,15.20
2019-06-07T22:28:15.174Z,15.20
2019-06-07T22:30:43.367Z,15.20
2019-06-07T22:33:13.339Z,15.10
2019-06-07T22:35:41.496Z,15.10
2019-06-07T22:38:10.259Z,15.10
2019-06-07T22:40:38.487Z,15.10
2019-06-07T22:43:07.486Z,15.20
2019-06-07T22:45:35.767Z,15.10
2019-06-07T22:48:03.983Z,15.10
2019-06-07T22:50:32.190Z,15.10
2019-06-07T22:53:00.411Z,15.00
2019-06-07T22:55:28.618Z,15.00
2019-06-07T22:57:58.493Z,15.00
2019-06-07T23:00:28.596Z,15.00
2019-06-07T23:02:56.813Z,15.00
2019-06-07T23:05:25.221Z,15.00
2019-06-07T23:07:53.428Z,15.00
2019-06-07T23:10:21.624Z,15.00
2019-06-07T23:12:50.054Z,15.00
2019-06-07T23:15:20.440Z,15.00
2019-06-07T23:17:48.382Z,15.00
2019-06-07T23:20:17.858Z,15.00
2019-06-07T23:22:46.351Z,14.90
2019-06-07T23:25:18.865Z,15.00
2019-06-07T23:27:44.481Z,14.90
2019-06-07T23:30:12.690Z,15.00
2019-06-07T23:32:40.890Z,15.00
2019-06-07T23:35:09.163Z,15.00
2019-06-07T23:37:37.370Z,15.00
2019-06-07T23:40:05.647Z,15.00
2019-06-07T23:42:33.840Z,15.00
2019-06-07T23:45:02.054Z,15.00
2019-06-07T23:47:30.244Z,15.00
2019-06-07T23:49:58.670Z,14.90
2019-06-07T23:52:26.894Z,14.90
2019-06-07T23:54:55.108Z,14.90
2019-06-07T23:57:23.301Z,14.90
2019-06-07T23:59:51.508Z,14.90
